Time;durP1;ratioP1;P1;durP2;ratioP2;P2;SDS_P1;SDS_P2;PMS_P1;PMS_P2;Temp;Humidity;BMP_temperature;BMP_pressure;BME280_temperature;BME280_humidity;BME280_pressure;Samples;Min_cycle;Max_cycle;Signal;HPM_P1;HPM_P2
2021/05/11 00:01:27;;;;;;;36.00;18.77;;;;;;;;;;5076589;28;20048;-59
2021/05/11 00:03:53;;;;;;;74.25;41.88;;;;;;;;;;5076480;28;20086;-60
2021/05/11 00:06:19;;;;;;;71.93;36.45;;;;;;;;;;5091702;28;20036;-58
2021/05/11 00:08:45;;;;;;;22.38;7.30;;;;;;;;;;5076477;28;20435;-57
2021/05/11 00:11:14;;;;;;;5.75;2.67;;;;;;;;;;5076030;28;20233;-61
2021/05/11 00:13:40;;;;;;;9.70;3.28;;;;;;;;;;5076366;28;20084;-61
2021/05/11 00:16:06;;;;;;;11.70;7.45;;;;;;;;;;5076414;28;20032;-57
2021/05/11 00:18:33;;;;;;;14.88;7.05;;;;;;;;;;5076265;28;20025;-58
2021/05/11 00:20:59;;;;;;;21.48;9.98;;;;;;;;;;5076102;28;20020;-59
2021/05/11 00:23:25;;;;;;;16.02;9.00;;;;;;;;;;5076186;28;20025;-58
2021/05/11 00:25:51;;;;;;;29.90;15.15;;;;;;;;;;5076020;28;20020;-60
2021/05/11 00:28:18;;;;;;;48.97;24.55;;;;;;;;;;5075976;28;20469;-58
2021/05/11 00:30:44;;;;;;;30.17;17.15;;;;;;;;;;5076044;28;20070;-61
2021/05/11 00:33:10;;;;;;;47.80;26.25;;;;;;;;;;5075821;28;20033;-56
2021/05/11 00:35:36;;;;;;;22.52;9.65;;;;;;;;;;5076032;28;20099;-57
2021/05/11 00:38:02;;;;;;;62.65;36.10;;;;;;;;;;5075793;28;20037;-61
2021/05/11 00:40:28;;;;;;;46.33;24.42;;;;;;;;;;5075679;28;20074;-61
2021/05/11 00:42:56;;;;;;;48.45;26.27;;;;;;;;;;5075326;28;20480;-60
2021/05/11 00:45:22;;;;;;;27.10;11.95;;;;;;;;;;5075771;28;20032;-52
2021/05/11 00:47:51;;;;;;;24.40;10.45;;;;;;;;;;5075781;28;20536;-62
2021/05/11 00:50:17;;;;;;;40.17;19.50;;;;;;;;;;5075710;28;20507;-61
2021/05/11 00:52:43;;;;;;;36.00;17.00;;;;;;;;;;5075422;28;20388;-50
2021/05/11 00:55:10;;;;;;;39.33;21.13;;;;;;;;;;5075483;28;20020;-58
2021/05/11 00:57:36;;;;;;;25.40;12.73;;;;;;;;;;5075546;28;20447;-62
2021/05/11 01:00:04;;;;;;;24.70;11.70;;;;;;;;;;5075432;28;20025;-59
2021/05/11 01:02:30;;;;;;;28.23;14.50;;;;;;;;;;5075514;28;20029;-57
2021/05/11 01:04:56;;;;;;;38.45;16.63;;;;;;;;;;5075446;28;20028;-56
2021/05/11 01:07:22;;;;;;;47.75;26.42;;;;;;;;;;5075275;28;20107;-50
2021/05/11 01:09:48;;;;;;;58.42;31.17;;;;;;;;;;5075156;28;20104;-55
2021/05/11 01:12:15;;;;;;;62.47;33.47;;;;;;;;;;5075073;28;20048;-56
2021/05/11 01:14:41;;;;;;;95.18;49.95;;;;;;;;;;5075259;28;20376;-55
2021/05/11 01:17:16;;;;;;;124.32;71.55;;;;;;;;;;5075247;28;20051;-55
2021/05/11 01:19:48;;;;;;;114.43;72.22;;;;;;;;;;5075142;28;20447;-56
2021/05/11 01:24:46;;;;;;;30.30;11.32;;;;;;;;;;5075134;28;20020;-56
2021/05/11 01:51:19;;;;;;;16.60;7.43;;;;;;;;;;5074589;28;20017;-62
2021/05/11 02:10:48;;;;;;;14.90;5.43;;;;;;;;;;5012325;28;20414;-63
2021/05/11 02:24:12;;;;;;;10.93;3.50;;;;;;;;;;5012697;28;20553;-59
2021/05/11 02:26:38;;;;;;;7.60;3.28;;;;;;;;;;5012305;28;20085;-52
2021/05/11 02:29:04;;;;;;;9.00;3.53;;;;;;;;;;4995615;28;20152;-52
2021/05/11 02:31:30;;;;;;;7.60;3.80;;;;;;;;;;4995501;28;20478;-52
2021/05/11 02:33:56;;;;;;;9.50;3.70;;;;;;;;;;5012219;28;20037;-63
2021/05/11 02:36:22;;;;;;;7.78;2.97;;;;;;;;;;5042610;28;20465;-60
2021/05/11 02:38:48;;;;;;;8.52;3.90;;;;;;;;;;5073721;28;20107;-60
2021/05/11 02:41:14;;;;;;;8.63;3.92;;;;;;;;;;5073524;28;20029;-52
2021/05/11 02:43:42;;;;;;;13.40;3.97;;;;;;;;;;5073659;28;20056;-64
2021/05/11 02:46:08;;;;;;;9.38;4.43;;;;;;;;;;5073575;28;20035;-63
2021/05/11 02:48:34;;;;;;;10.27;5.05;;;;;;;;;;5073732;28;20029;-52
2021/05/11 02:51:00;;;;;;;13.10;5.50;;;;;;;;;;5073777;28;20016;-52
2021/05/11 02:53:27;;;;;;;16.55;6.30;;;;;;;;;;5073499;28;20032;-64
2021/05/11 02:55:53;;;;;;;10.23;5.30;;;;;;;;;;5073304;28;20028;-62
2021/05/11 02:58:19;;;;;;;9.45;4.85;;;;;;;;;;5073785;28;20028;-60
2021/05/11 03:00:45;;;;;;;11.90;5.35;;;;;;;;;;5073388;28;20016;-62
2021/05/11 03:03:11;;;;;;;12.98;5.40;;;;;;;;;;5073409;28;20113;-63
2021/05/11 03:05:37;;;;;;;13.15;5.63;;;;;;;;;;5073512;28;20021;-65
2021/05/11 03:08:06;;;;;;;15.77;4.63;;;;;;;;;;5073258;28;20108;-64
2021/05/11 03:10:32;;;;;;;14.98;4.78;;;;;;;;;;5073018;28;20048;-66
2021/05/11 03:12:58;;;;;;;9.73;4.50;;;;;;;;;;5073348;28;20029;-61
2021/05/11 03:15:26;;;;;;;12.23;4.65;;;;;;;;;;5073248;28;20021;-59
2021/05/11 03:17:52;;;;;;;10.73;5.00;;;;;;;;;;5073356;28;20033;-54
2021/05/11 03:20:18;;;;;;;13.07;4.50;;;;;;;;;;5073300;28;20086;-62
2021/05/11 03:22:44;;;;;;;12.73;4.88;;;;;;;;;;5073347;28;20029;-62
2021/05/11 03:25:11;;;;;;;10.60;5.25;;;;;;;;;;5073392;28;20051;-62
2021/05/11 03:27:37;;;;;;;12.68;5.30;;;;;;;;;;5073434;28;20024;-62
2021/05/11 03:30:04;;;;;;;13.20;5.18;;;;;;;;;;5073074;28;20031;-61
2021/05/11 03:32:32;;;;;;;13.18;4.78;;;;;;;;;;5073252;28;20085;-60
2021/05/11 03:34:58;;;;;;;13.85;5.95;;;;;;;;;;5073347;28;20025;-61
2021/05/11 03:37:24;;;;;;;11.32;5.30;;;;;;;;;;5073188;28;20078;-61
2021/05/11 03:39:51;;;;;;;12.10;4.93;;;;;;;;;;5072834;28;20032;-57
2021/05/11 03:42:31;;;;;;;10.88;4.93;;;;;;;;;;5073107;28;20027;-55
2021/05/11 03:45:01;;;;;;;15.65;7.75;;;;;;;;;;5088103;28;20043;-50
2021/05/11 03:47:28;;;;;;;42.72;21.48;;;;;;;;;;5072888;28;20017;-50
2021/05/11 03:49:55;;;;;;;18.85;9.20;;;;;;;;;;5072995;28;20445;-50
2021/05/11 03:52:21;;;;;;;20.27;12.13;;;;;;;;;;5072772;28;20032;-57
2021/05/11 03:54:47;;;;;;;13.25;6.18;;;;;;;;;;5072866;28;20495;-55
2021/05/11 03:57:13;;;;;;;10.57;5.50;;;;;;;;;;5072800;28;20044;-57
2021/05/11 03:59:39;;;;;;;10.40;4.68;;;;;;;;;;5073062;28;20043;-58
2021/05/11 04:02:05;;;;;;;19.23;7.85;;;;;;;;;;5073087;28;20396;-59
2021/05/11 04:04:32;;;;;;;14.00;5.43;;;;;;;;;;5073008;28;20025;-60
2021/05/11 04:06:58;;;;;;;12.65;6.18;;;;;;;;;;5072782;28;20162;-61
2021/05/11 04:12:26;;;;;;;9.65;5.15;;;;;;;;;;5072465;28;20044;-52
2021/05/11 04:17:23;;;;;;;14.13;5.05;;;;;;;;;;5073163;28;20035;-59
2021/05/11 04:19:49;;;;;;;11.15;4.90;;;;;;;;;;5075797;28;20032;-56
2021/05/11 04:22:15;;;;;;;10.55;4.72;;;;;;;;;;5076324;28;20021;-62
2021/05/11 04:24:42;;;;;;;13.82;6.57;;;;;;;;;;5076183;28;20040;-61
2021/05/11 04:27:08;;;;;;;9.05;4.43;;;;;;;;;;5076126;28;20488;-62
2021/05/11 04:29:34;;;;;;;11.98;4.70;;;;;;;;;;5076230;28;20032;-59
2021/05/11 04:32:01;;;;;;;10.88;4.40;;;;;;;;;;5076192;28;20074;-56
2021/05/11 04:34:27;;;;;;;13.63;4.70;;;;;;;;;;5076375;28;20031;-60
2021/05/11 04:36:53;;;;;;;13.75;5.28;;;;;;;;;;5076266;28;20029;-61
2021/05/11 04:39:19;;;;;;;14.48;4.53;;;;;;;;;;5075886;28;20021;-61
2021/05/11 04:41:45;;;;;;;11.63;5.57;;;;;;;;;;5075768;28;20107;-63
2021/05/11 04:44:11;;;;;;;11.23;4.95;;;;;;;;;;5076106;28;20031;-63
2021/05/11 04:49:36;;;;;;;10.55;5.50;;;;;;;;;;5053828;28;20025;-57
2021/05/11 04:52:02;;;;;;;16.52;5.55;;;;;;;;;;5053553;28;20040;-62
2021/05/11 04:54:28;;;;;;;11.25;5.35;;;;;;;;;;5037031;28;20021;-61
2021/05/11 04:56:54;;;;;;;12.20;7.38;;;;;;;;;;5053479;28;20033;-62
2021/05/11 04:59:21;;;;;;;12.50;4.47;;;;;;;;;;5053493;28;20033;-53
2021/05/11 05:01:49;;;;;;;10.50;4.15;;;;;;;;;;5053467;28;20083;-62
2021/05/11 05:04:16;;;;;;;5.63;4.10;;;;;;;;;;5053379;28;20029;-62
2021/05/11 05:06:42;;;;;;;8.40;4.28;;;;;;;;;;5053124;28;20037;-63
2021/05/11 05:09:08;;;;;;;13.45;6.82;;;;;;;;;;5053191;28;20412;-62
2021/05/11 05:11:39;;;;;;;9.63;4.20;;;;;;;;;;5052639;28;20083;-53
2021/05/11 05:14:05;;;;;;;;;;;;;;;;;;5053463;28;20067;-62
2021/05/11 05:16:32;;;;;;;25.98;14.27;;;;;;;;;;5053287;28;19905;-60
2021/05/11 05:18:58;;;;;;;19.10;10.38;;;;;;;;;;5053076;28;20029;-62
2021/05/11 05:21:24;;;;;;;12.10;5.15;;;;;;;;;;5052915;28;20029;-60
2021/05/11 05:24:01;;;;;;;14.43;5.78;;;;;;;;;;5053000;28;20040;-62
2021/05/11 05:26:29;;;;;;;3.80;1.95;;;;;;;;;;5075058;28;20021;-60
2021/05/11 05:28:57;;;;;;;9.50;2.15;;;;;;;;;;5074818;28;20374;-58
2021/05/11 05:31:26;;;;;;;8.52;3.42;;;;;;;;;;5074706;28;20461;-63
2021/05/11 05:33:52;;;;;;;8.70;3.30;;;;;;;;;;5074624;28;20047;-61
2021/05/11 05:36:20;;;;;;;6.45;3.88;;;;;;;;;;5074973;28;20518;-60
2021/05/11 05:38:46;;;;;;;10.82;5.68;;;;;;;;;;5074665;28;20033;-59
2021/05/11 05:41:19;;;;;;;8.68;3.85;;;;;;;;;;5074418;28;20028;-61
2021/05/11 05:43:46;;;;;;;13.65;4.95;;;;;;;;;;5074506;28;20032;-62
2021/05/11 05:46:12;;;;;;;28.00;15.10;;;;;;;;;;5074532;28;20025;-59
2021/05/11 05:48:40;;;;;;;4.82;2.83;;;;;;;;;;5074366;28;20048;-51
2021/05/11 05:51:06;;;;;;;4.68;1.63;;;;;;;;;;5074507;28;20016;-60
2021/05/11 05:53:41;;;;;;;8.57;3.08;;;;;;;;;;5074319;28;20028;-59
2021/05/11 05:56:07;;;;;;;8.68;5.32;;;;;;;;;;5074357;28;20109;-59
2021/05/11 05:58:34;;;;;;;7.30;3.53;;;;;;;;;;5074599;28;20074;-59
2021/05/11 06:01:06;;;;;;;4.97;2.80;;;;;;;;;;5074356;28;20029;-61
2021/05/11 06:05:58;;;;;;;5.88;1.95;;;;;;;;;;5074452;28;20543;-58
2021/05/11 06:08:26;;;;;;;5.97;3.38;;;;;;;;;;5074158;28;20336;-61
2021/05/11 06:10:57;;;;;;;6.32;1.67;;;;;;;;;;5073676;28;20051;-63
2021/05/11 06:13:28;;;;;;;;;;;;;;;;;;5074500;28;20404;-59
2021/05/11 06:18:39;;;;;;;4.05;1.60;;;;;;;;;;5073967;28;20124;-60
2021/05/11 06:21:05;;;;;;;9.43;2.35;;;;;;;;;;5073922;28;20028;-58
2021/05/11 06:23:31;;;;;;;5.18;2.20;;;;;;;;;;5073935;28;20426;-58
2021/05/11 06:25:57;;;;;;;4.03;1.70;;;;;;;;;;5073774;28;20755;-58
2021/05/11 06:28:24;;;;;;;6.50;1.90;;;;;;;;;;5073797;28;20029;-61
2021/05/11 06:30:50;;;;;;;11.18;2.55;;;;;;;;;;5073594;28;20028;-60
2021/05/11 06:33:16;;;;;;;8.88;2.10;;;;;;;;;;5074062;28;20137;-62
2021/05/11 06:35:43;;;;;;;2.88;1.60;;;;;;;;;;5073838;28;20151;-64
2021/05/11 06:38:09;;;;;;;4.82;1.80;;;;;;;;;;5073707;28;20418;-60
2021/05/11 06:40:38;;;;;;;8.40;1.80;;;;;;;;;;5073275;28;20036;-61
2021/05/11 06:43:04;;;;;;;2.72;1.67;;;;;;;;;;5073518;28;20033;-62
2021/05/11 06:48:28;;;;;;;4.07;2.42;;;;;;;;;;5051319;28;20440;-62
2021/05/11 06:53:38;;;;;;;6.18;1.92;;;;;;;;;;5051067;28;20128;-62
2021/05/11 06:56:06;;;;;;;4.05;1.70;;;;;;;;;;5051182;28;20036;-62
2021/05/11 06:58:32;;;;;;;5.30;1.48;;;;;;;;;;5051144;28;20036;-62
2021/05/11 07:00:59;;;;;;;4.38;2.70;;;;;;;;;;5051331;28;20113;-61
2021/05/11 07:03:25;;;;;;;5.38;1.70;;;;;;;;;;5051168;28;20086;-62
2021/05/11 07:05:52;;;;;;;4.25;1.80;;;;;;;;;;5051193;28;20179;-61
2021/05/11 07:10:51;;;;;;;6.35;2.03;;;;;;;;;;5050789;28;20049;-62
2021/05/11 07:13:18;;;;;;;6.55;1.67;;;;;;;;;;5051032;28;20397;-62
2021/05/11 07:15:45;;;;;;;5.97;2.53;;;;;;;;;;5051049;28;20029;-62
2021/05/11 07:18:12;;;;;;;8.95;2.10;;;;;;;;;;5051373;28;20033;-62
2021/05/11 07:20:41;;;;;;;5.30;1.85;;;;;;;;;;5051277;28;20048;-64
2021/05/11 07:23:07;;;;;;;7.05;1.80;;;;;;;;;;5050910;28;20021;-62
2021/05/11 07:25:42;;;;;;;3.55;2.00;;;;;;;;;;5069111;28;20033;-62
2021/05/11 07:30:38;;;;;;;4.25;1.70;;;;;;;;;;5073128;28;20032;-62
2021/05/11 07:33:06;;;;;;;4.68;1.65;;;;;;;;;;5072823;28;20085;-64
2021/05/11 07:35:33;;;;;;;6.72;2.30;;;;;;;;;;5072894;28;20028;-61
2021/05/11 07:37:59;;;;;;;4.93;2.38;;;;;;;;;;5072938;28;20028;-65
2021/05/11 07:40:25;;;;;;;6.55;2.22;;;;;;;;;;5072967;28;20063;-66
2021/05/11 07:42:51;;;;;;;7.65;2.42;;;;;;;;;;5072841;28;20040;-65
2021/05/11 07:45:31;;;;;;;9.98;2.15;;;;;;;;;;5072853;28;20066;-63
2021/05/11 07:51:31;;;;;;;11.98;2.65;;;;;;;;;;5072733;28;20086;-65
2021/05/11 08:04:27;;;;;;;44.05;24.10;;;;;;;;;;5076712;28;20042;-52
2021/05/11 08:15:20;;;;;;;9.20;2.60;;;;;;;;;;5092556;28;20035;-56
2021/05/11 08:18:04;;;;;;;17.70;7.32;;;;;;;;;;5094582;28;20035;-53
2021/05/11 08:28:29;;;;;;;7.22;2.88;;;;;;;;;;5094634;28;20031;-63
2021/05/11 08:30:55;;;;;;;9.98;4.70;;;;;;;;;;5095888;28;20121;-55
2021/05/11 08:33:21;;;;;;;71.45;44.42;;;;;;;;;;5095660;28;20030;-58
2021/05/11 08:35:49;;;;;;;22.80;16.30;;;;;;;;;;5095813;28;20035;-61
2021/05/11 08:38:15;;;;;;;13.73;4.93;;;;;;;;;;5094204;28;20096;-59
2021/05/11 08:40:41;;;;;;;22.17;12.88;;;;;;;;;;5095562;28;20020;-58
2021/05/11 08:43:24;;;;;;;12.85;5.45;;;;;;;;;;5095372;28;20056;-57
2021/05/11 08:45:52;;;;;;;9.57;3.45;;;;;;;;;;5094914;28;20076;-57
2021/05/11 08:48:18;;;;;;;6.05;1.92;;;;;;;;;;5092119;28;20132;-58
2021/05/11 08:50:54;;;;;;;8.38;2.38;;;;;;;;;;5095720;28;20032;-55
2021/05/11 09:54:39;;;;;;;7.07;2.47;;;;;;;;;;5056612;28;20443;-59
2021/05/11 09:57:18;;;;;;;7.40;2.30;;;;;;;;;;5062369;28;20594;-61
2021/05/11 10:31:56;;;;;;;5.68;2.22;;;;;;;;;;5063632;28;20035;-55
2021/05/11 10:48:27;;;;;;;10.57;2.40;;;;;;;;;;5061383;28;20392;-56
2021/05/11 10:50:56;;;;;;;12.18;2.30;;;;;;;;;;5061253;28;20020;-55
2021/05/11 10:53:37;;;;;;;17.17;8.55;;;;;;;;;;5061256;28;20508;-59
2021/05/11 11:00:00;;;;;;;13.38;7.05;;;;;;;;;;5061238;28;20028;-56
2021/05/11 11:02:22;;;;;;;18.88;9.73;;;;;;;;;;5059346;28;20135;-52
2021/05/11 11:04:48;;;;;;;246.35;169.90;;;;;;;;;;5060777;28;20385;-60
2021/05/11 11:07:14;;;;;;;14.23;6.10;;;;;;;;;;5062012;28;20089;-55
2021/05/11 11:09:41;;;;;;;6.28;3.42;;;;;;;;;;5061288;28;20027;-60
2021/05/11 11:12:08;;;;;;;9.20;3.58;;;;;;;;;;5060672;28;20060;-56
2021/05/11 11:14:44;;;;;;;8.30;2.83;;;;;;;;;;5062009;28;20037;-53
2021/05/11 11:17:14;;;;;;;7.50;2.65;;;;;;;;;;5062432;28;20024;-52
2021/05/11 11:19:40;;;;;;;7.57;2.30;;;;;;;;;;5061008;28;20032;-50
2021/05/11 11:24:57;;;;;;;9.80;4.97;;;;;;;;;;5057941;28;20035;-62
2021/05/11 11:27:27;;;;;;;9.95;3.40;;;;;;;;;;5059207;28;20155;-56
2021/05/11 11:29:59;;;;;;;18.88;9.90;;;;;;;;;;5062436;28;20496;-56
2021/05/11 11:32:25;;;;;;;14.68;2.35;;;;;;;;;;5062741;28;20032;-62
2021/05/11 11:34:59;;;;;;;8.27;2.17;;;;;;;;;;5062247;28;20028;-60
2021/05/11 11:37:27;;;;;;;7.72;2.17;;;;;;;;;;5061816;28;20032;-58
2021/05/11 11:39:56;;;;;;;9.35;2.35;;;;;;;;;;5063636;28;20049;-54
2021/05/11 11:42:28;;;;;;;4.97;2.08;;;;;;;;;;5061274;28;20064;-60
2021/05/11 11:44:59;;;;;;;8.20;2.13;;;;;;;;;;5061674;28;20090;-60
2021/05/11 11:47:26;;;;;;;6.47;2.20;;;;;;;;;;5068417;28;20148;-58
2021/05/11 11:49:56;;;;;;;7.80;2.08;;;;;;;;;;5068514;28;20518;-62
2021/05/11 12:00:34;;;;;;;17.95;9.70;;;;;;;;;;5042273;28;20491;-60
2021/05/11 12:03:01;;;;;;;7.22;2.55;;;;;;;;;;5028977;28;20338;-57
2021/05/11 12:05:29;;;;;;;13.80;7.25;;;;;;;;;;5027589;28;20041;-58
2021/05/11 12:08:04;;;;;;;32.33;22.45;;;;;;;;;;5024638;28;20359;-55
2021/05/11 12:10:30;;;;;;;47.40;31.33;;;;;;;;;;5023088;28;20048;-58
2021/05/11 12:12:57;;;;;;;28.63;13.38;;;;;;;;;;5022598;28;20489;-62
2021/05/11 12:15:23;;;;;;;38.45;24.02;;;;;;;;;;5022861;28;20022;-59
2021/05/11 12:18:01;;;;;;;31.35;17.25;;;;;;;;;;5004915;28;20065;-59
2021/05/11 12:20:27;;;;;;;5.90;2.67;;;;;;;;;;5022830;28;20033;-58
2021/05/11 12:23:23;;;;;;;4.47;2.30;;;;;;;;;;5022532;28;20029;-56
2021/05/11 12:25:56;;;;;;;8.25;3.95;;;;;;;;;;4982376;28;20337;-55
2021/05/11 12:28:32;;;;;;;6.18;2.10;;;;;;;;;;4981719;28;20022;-54
2021/05/11 12:30:58;;;;;;;8.63;2.08;;;;;;;;;;4983753;28;20030;-61
2021/05/11 12:33:31;;;;;;;3.78;2.00;;;;;;;;;;4980861;28;20038;-63
2021/05/11 12:36:00;;;;;;;7.32;2.58;;;;;;;;;;4987102;28;20034;-62
2021/05/11 12:38:29;;;;;;;7.72;3.22;;;;;;;;;;5047775;28;20051;-59
2021/05/11 12:41:13;;;;;;;8.52;3.35;;;;;;;;;;5048662;28;20029;-61
2021/05/11 12:43:48;;;;;;;7.68;2.28;;;;;;;;;;5048906;28;20400;-61
2021/05/11 12:46:18;;;;;;;9.88;2.78;;;;;;;;;;5047949;28;20032;-56
2021/05/11 12:48:59;;;;;;;8.40;2.03;;;;;;;;;;5048632;28;20381;-64
2021/05/11 12:51:32;;;;;;;8.05;1.80;;;;;;;;;;5047783;28;20025;-62
2021/05/11 12:54:01;;;;;;;5.85;1.77;;;;;;;;;;5048177;28;20044;-54
2021/05/11 12:56:32;;;;;;;8.68;6.35;;;;;;;;;;5048872;28;20240;-58
2021/05/11 13:01:37;;;;;;;34.78;25.27;;;;;;;;;;5050667;28;20198;-56
2021/05/11 13:04:34;;;;;;;9.38;4.97;;;;;;;;;;5064737;28;20020;-60
2021/05/11 13:20:52;;;;;;;4.97;1.67;;;;;;;;;;5064338;28;20032;-62
2021/05/11 13:25:49;;;;;;;7.72;1.83;;;;;;;;;;5063008;28;20028;-66
2021/05/11 13:33:28;;;;;;;5.03;2.00;;;;;;;;;;5063988;28;20098;-64
2021/05/11 13:35:54;;;;;;;11.50;2.60;;;;;;;;;;5063979;28;20024;-67
2021/05/11 13:38:22;;;;;;;8.10;2.10;;;;;;;;;;5062869;28;20024;-65
2021/05/11 13:40:48;;;;;;;8.07;2.28;;;;;;;;;;5062506;28;20056;-53
2021/05/11 13:43:16;;;;;;;5.07;2.42;;;;;;;;;;5062168;28;20149;-64
2021/05/11 13:45:42;;;;;;;5.25;1.90;;;;;;;;;;5062519;28;20017;-61
2021/05/11 13:48:16;;;;;;;9.95;2.30;;;;;;;;;;5062549;28;20060;-62
2021/05/11 13:53:29;;;;;;;7.78;1.85;;;;;;;;;;5062787;28;20040;-64
2021/05/11 13:56:13;;;;;;;4.97;2.10;;;;;;;;;;5062222;28;20028;-58
2021/05/11 14:01:50;;;;;;;5.03;2.40;;;;;;;;;;5063185;28;20097;-60
2021/05/11 14:04:16;;;;;;;2.78;2.08;;;;;;;;;;5062188;28;20032;-66
2021/05/11 14:06:43;;;;;;;4.80;2.08;;;;;;;;;;5062709;28;20801;-64
2021/05/11 14:09:09;;;;;;;7.07;1.85;;;;;;;;;;5063788;28;20066;-65
2021/05/11 14:11:36;;;;;;;8.55;2.03;;;;;;;;;;5061837;28;20177;-61
2021/05/11 14:14:02;;;;;;;8.65;2.30;;;;;;;;;;5062988;28;20452;-62
2021/05/11 14:16:29;;;;;;;4.47;1.80;;;;;;;;;;5063184;28;20016;-65
2021/05/11 14:18:55;;;;;;;5.95;1.67;;;;;;;;;;5061834;28;20122;-65
2021/05/11 14:21:22;;;;;;;2.88;1.75;;;;;;;;;;5061749;28;20368;-65
2021/05/11 14:23:48;;;;;;;5.93;2.10;;;;;;;;;;5061696;28;20028;-65
2021/05/11 14:26:14;;;;;;;3.28;1.63;;;;;;;;;;5061863;28;20028;-65
2021/05/11 14:28:40;;;;;;;4.28;1.58;;;;;;;;;;5061501;28;20412;-58
2021/05/11 14:31:06;;;;;;;5.68;1.90;;;;;;;;;;5062203;28;20016;-61
2021/05/11 14:33:32;;;;;;;6.97;2.03;;;;;;;;;;5061871;28;20039;-60
2021/05/11 14:35:59;;;;;;;5.95;2.22;;;;;;;;;;5060579;28;20150;-65
2021/05/11 14:38:25;;;;;;;5.40;1.77;;;;;;;;;;5063929;28;20020;-59
2021/05/11 14:40:51;;;;;;;6.65;2.05;;;;;;;;;;5061244;28;20052;-67
2021/05/11 14:43:17;;;;;;;7.72;1.95;;;;;;;;;;5060967;28;20028;-65
2021/05/11 14:45:43;;;;;;;3.28;2.03;;;;;;;;;;5062550;28;20031;-64
2021/05/11 14:48:09;;;;;;;3.88;2.10;;;;;;;;;;5062724;28;20099;-63
2021/05/11 14:50:35;;;;;;;7.78;2.30;;;;;;;;;;5061408;28;20529;-66
2021/05/11 14:53:01;;;;;;;4.38;1.95;;;;;;;;;;5061313;28;20078;-61
2021/05/11 14:55:27;;;;;;;5.38;2.22;;;;;;;;;;5060963;28;20021;-64
2021/05/11 14:57:57;;;;;;;7.68;1.80;;;;;;;;;;5061938;28;20023;-62
2021/05/11 15:00:24;;;;;;;7.47;2.03;;;;;;;;;;5061442;28;20029;-63
2021/05/11 15:02:50;;;;;;;5.85;1.60;;;;;;;;;;5060814;28;20172;-63
2021/05/11 15:05:16;;;;;;;5.57;1.92;;;;;;;;;;5061837;28;20031;-61
2021/05/11 15:07:42;;;;;;;8.50;1.90;;;;;;;;;;5061162;28;20020;-58
2021/05/11 15:10:09;;;;;;;5.30;2.03;;;;;;;;;;5061616;28;20432;-62
2021/05/11 15:12:36;;;;;;;5.80;2.00;;;;;;;;;;5060983;28;20048;-63
2021/05/11 15:15:02;;;;;;;6.95;2.10;;;;;;;;;;5062130;28;20040;-55
2021/05/11 15:19:55;;;;;;;5.30;2.25;;;;;;;;;;5061052;28;20098;-61
2021/05/11 15:22:21;;;;;;;63.13;26.98;;;;;;;;;;5061463;28;20107;-58
2021/05/11 15:24:48;;;;;;;85.68;35.28;;;;;;;;;;5061433;28;20028;-60
2021/05/11 15:27:15;;;;;;;34.78;15.60;;;;;;;;;;5060887;28;20027;-64
2021/05/11 15:29:41;;;;;;;57.15;26.50;;;;;;;;;;5060538;28;20202;-55
2021/05/11 15:32:27;;;;;;;19.73;8.68;;;;;;;;;;5060528;28;20029;-58
2021/05/11 15:34:53;;;;;;;13.77;4.35;;;;;;;;;;5061457;28;20119;-57
2021/05/11 15:37:19;;;;;;;8.32;4.15;;;;;;;;;;5062572;28;20031;-61
2021/05/11 15:39:45;;;;;;;11.52;3.80;;;;;;;;;;5062258;28;20048;-62
2021/05/11 15:42:11;;;;;;;10.02;5.47;;;;;;;;;;5060783;28;20036;-60
2021/05/11 15:44:37;;;;;;;7.88;2.40;;;;;;;;;;5070380;28;20037;-67
2021/05/11 15:47:03;;;;;;;6.35;3.00;;;;;;;;;;5060412;28;20028;-62
2021/05/11 15:49:30;;;;;;;3.25;2.20;;;;;;;;;;5061613;28;20075;-66
2021/05/11 15:51:56;;;;;;;6.90;2.88;;;;;;;;;;5060896;28;20070;-69
2021/05/11 15:54:22;;;;;;;7.25;2.35;;;;;;;;;;5060788;28;20028;-55
2021/05/11 15:56:48;;;;;;;9.45;2.17;;;;;;;;;;5060507;28;20028;-56
2021/05/11 15:59:15;;;;;;;3.53;1.90;;;;;;;;;;5060702;28;20391;-65
2021/05/11 16:01:41;;;;;;;4.68;2.55;;;;;;;;;;5060518;28;20120;-58
2021/05/11 16:04:07;;;;;;;3.00;1.85;;;;;;;;;;5060717;28;20028;-66
2021/05/11 16:06:33;;;;;;;6.15;2.20;;;;;;;;;;5062028;28;20020;-59
2021/05/11 16:08:59;;;;;;;4.60;1.92;;;;;;;;;;5061085;28;20024;-61
2021/05/11 16:11:25;;;;;;;3.45;2.17;;;;;;;;;;5060270;28;20056;-64
2021/05/11 16:13:51;;;;;;;8.75;3.00;;;;;;;;;;5060440;28;20072;-61
2021/05/11 16:16:17;;;;;;;3.97;2.00;;;;;;;;;;5064208;28;21599;-60
2021/05/11 16:18:43;;;;;;;11.27;2.38;;;;;;;;;;5065781;28;20034;-65
2021/05/11 16:21:09;;;;;;;9.20;2.40;;;;;;;;;;5063828;28;20024;-59
2021/05/11 16:23:35;;;;;;;5.75;2.33;;;;;;;;;;5063347;28;20048;-63
2021/05/11 16:26:01;;;;;;;4.60;2.28;;;;;;;;;;5063849;28;20196;-60
2021/05/11 16:28:28;;;;;;;9.48;2.53;;;;;;;;;;5064227;28;20089;-60
2021/05/11 16:30:54;;;;;;;6.35;1.92;;;;;;;;;;5063735;28;20021;-57
2021/05/11 16:33:20;;;;;;;5.63;3.20;;;;;;;;;;5063748;28;20186;-55
2021/05/11 16:35:47;;;;;;;31.50;22.10;;;;;;;;;;5065200;28;20024;-53
2021/05/11 16:38:13;;;;;;;15.60;9.40;;;;;;;;;;5064367;28;20048;-59
2021/05/11 16:40:40;;;;;;;10.60;3.50;;;;;;;;;;5063525;28;20191;-58
2021/05/11 16:43:07;;;;;;;8.35;2.22;;;;;;;;;;5073198;28;20913;-61
2021/05/11 16:45:33;;;;;;;30.55;19.85;;;;;;;;;;5063672;28;20051;-60
2021/05/11 16:48:00;;;;;;;68.70;48.58;;;;;;;;;;5063527;28;20023;-59
2021/05/11 16:50:30;;;;;;;8.85;4.07;;;;;;;;;;5063742;28;20024;-52
2021/05/11 16:52:58;;;;;;;8.43;2.78;;;;;;;;;;5063819;28;20077;-54
2021/05/11 16:55:25;;;;;;;4.80;2.30;;;;;;;;;;5063473;28;20396;-53
2021/05/11 16:57:51;;;;;;;14.98;6.13;;;;;;;;;;5063557;28;20114;-53
2021/05/11 17:00:18;;;;;;;11.93;5.38;;;;;;;;;;5063228;28;20035;-53
2021/05/11 17:02:44;;;;;;;20.63;7.75;;;;;;;;;;5062992;28;20012;-53
2021/05/11 17:05:10;;;;;;;20.27;8.98;;;;;;;;;;5064386;28;21777;-53
2021/05/11 17:07:37;;;;;;;11.93;4.32;;;;;;;;;;5063191;28;20459;-52
2021/05/11 17:10:04;;;;;;;10.38;3.42;;;;;;;;;;5063234;28;20127;-52
2021/05/11 17:12:30;;;;;;;6.47;1.90;;;;;;;;;;5063029;28;20413;-52
2021/05/11 17:14:57;;;;;;;10.40;2.40;;;;;;;;;;5062948;28;20047;-53
2021/05/11 17:17:23;;;;;;;8.05;2.70;;;;;;;;;;5063009;28;20094;-52
2021/05/11 17:19:49;;;;;;;11.23;2.70;;;;;;;;;;5062936;28;20021;-53
2021/05/11 17:22:15;;;;;;;9.45;2.30;;;;;;;;;;5062794;28;20201;-53
2021/05/11 17:24:44;;;;;;;11.63;1.98;;;;;;;;;;5062808;28;20035;-53
2021/05/11 17:27:11;;;;;;;10.82;4.93;;;;;;;;;;5062731;28;20024;-54
2021/05/11 17:29:37;;;;;;;6.38;2.22;;;;;;;;;;5062539;28;20136;-57
2021/05/11 17:32:05;;;;;;;7.15;2.42;;;;;;;;;;5062427;28;20028;-52
2021/05/11 17:34:32;;;;;;;7.05;2.35;;;;;;;;;;5062511;28;20090;-54
2021/05/11 17:36:58;;;;;;;9.93;3.15;;;;;;;;;;5062828;28;20361;-54
2021/05/11 17:39:24;;;;;;;6.72;2.72;;;;;;;;;;5062734;28;20036;-54
2021/05/11 17:41:50;;;;;;;12.38;3.72;;;;;;;;;;5062380;28;20035;-54
2021/05/11 17:44:16;;;;;;;14.15;5.80;;;;;;;;;;5062275;28;20291;-53
2021/05/11 17:46:42;;;;;;;34.40;19.48;;;;;;;;;;5062549;28;20028;-53
2021/05/11 17:49:08;;;;;;;9.82;3.80;;;;;;;;;;5062577;28;20519;-53
2021/05/11 17:51:34;;;;;;;26.40;15.23;;;;;;;;;;5062496;28;20024;-55
2021/05/11 17:54:00;;;;;;;18.88;7.43;;;;;;;;;;5062400;28;20040;-56
2021/05/11 17:56:31;;;;;;;26.75;14.82;;;;;;;;;;5062232;28;20546;-56
2021/05/11 17:58:59;;;;;;;61.53;21.83;;;;;;;;;;5062024;28;20055;-60
2021/05/11 18:01:25;;;;;;;43.15;19.98;;;;;;;;;;5063411;28;20020;-57
2021/05/11 18:03:53;;;;;;;11.90;2.88;;;;;;;;;;5104134;28;20023;-57
2021/05/11 18:06:19;;;;;;;9.02;1.83;;;;;;;;;;5115115;28;20031;-57
2021/05/11 18:08:45;;;;;;;11.88;3.45;;;;;;;;;;5114877;28;20077;-57
2021/05/11 18:11:11;;;;;;;17.38;2.70;;;;;;;;;;5114596;28;20459;-57
2021/05/11 18:13:37;;;;;;;14.45;2.30;;;;;;;;;;5114609;28;20107;-57
2021/05/11 18:16:08;;;;;;;18.85;2.30;;;;;;;;;;5113227;28;20122;-57
2021/05/11 18:18:34;;;;;;;12.45;2.38;;;;;;;;;;5114670;28;20027;-57
2021/05/11 18:21:03;;;;;;;8.00;2.25;;;;;;;;;;5114604;28;20476;-57
2021/05/11 18:23:29;;;;;;;7.07;1.80;;;;;;;;;;5114451;28;20035;-58
2021/05/11 18:25:55;;;;;;;12.32;2.05;;;;;;;;;;5114426;28;20052;-57
2021/05/11 18:28:21;;;;;;;6.15;2.35;;;;;;;;;;5113191;28;20024;-56
2021/05/11 18:30:47;;;;;;;7.82;2.22;;;;;;;;;;5114226;28;20028;-57
2021/05/11 18:33:13;;;;;;;9.15;2.50;;;;;;;;;;5113842;28;20099;-57
2021/05/11 18:35:40;;;;;;;9.60;2.88;;;;;;;;;;5113563;28;20062;-57
2021/05/11 18:38:08;;;;;;;19.15;2.50;;;;;;;;;;5112855;28;20098;-56
2021/05/11 18:40:34;;;;;;;24.75;10.73;;;;;;;;;;5113157;28;20062;-56
2021/05/11 18:43:01;;;;;;;12.10;5.85;;;;;;;;;;5113015;28;20375;-56
2021/05/11 18:45:27;;;;;;;32.72;19.40;;;;;;;;;;5113201;28;20106;-59
2021/05/11 18:47:57;;;;;;;8.98;2.65;;;;;;;;;;5113141;28;20026;-56
2021/05/11 18:50:27;;;;;;;16.27;3.00;;;;;;;;;;5066376;28;20135;-56
2021/05/11 18:52:53;;;;;;;25.63;10.17;;;;;;;;;;5060387;28;20063;-55
2021/05/11 18:55:20;;;;;;;31.88;14.38;;;;;;;;;;5060583;28;20092;-55
2021/05/11 18:57:46;;;;;;;23.77;10.30;;;;;;;;;;5060513;28;20024;-55
2021/05/11 19:00:13;;;;;;;14.00;4.57;;;;;;;;;;5061241;28;20472;-55
2021/05/11 19:02:39;;;;;;;20.25;6.53;;;;;;;;;;5060286;28;20020;-54